sensor_id;sensor_type;location;lat;lon;timestamp;pressure;altitude;pressure_sealevel;temperature;humidity
17309;BME280;8772;42.804;23.426;2023-03-20T00:01:52;74732.94;;;-140.58;100.00
17309;BME280;8772;42.804;23.426;2023-03-20T00:04:19;74730.88;;;-140.58;100.00
17309;BME280;8772;42.804;23.426;2023-03-20T00:06:45;74724.72;;;-140.58;100.00
17309;BME280;8772;42.804;23.426;2023-03-20T00:09:12;74741.13;;;-140.58;100.00
17309;BME280;8772;42.804;23.426;2023-03-20T00:11:45;74749.34;;;-140.58;100.00
17309;BME280;8772;42.804;23.426;2023-03-20T00:14:15;74737.03;;;-140.58;100.00
17309;BME280;8772;42.804;23.426;2023-03-20T00:16:44;74732.94;;;-140.58;100.00
17309;BME280;8772;42.804;23.426;2023-03-20T00:19:14;74749.34;;;-140.58;100.00
17309;BME280;8772;42.804;23.426;2023-03-20T00:21:42;74769.88;;;-140.58;100.00
17309;BME280;8772;42.804;23.426;2023-03-20T00:24:10;74780.13;;;-140.58;100.00
17309;BME280;8772;42.804;23.426;2023-03-20T00:26:37;74769.88;;;-140.58;100.00
17309;BME280;8772;42.804;23.426;2023-03-20T00:29:11;74757.56;;;-140.58;100.00
17309;BME280;8772;42.804;23.426;2023-03-20T00:31:41;74751.41;;;-140.58;100.00
17309;BME280;8772;42.804;23.426;2023-03-20T00:34:11;74747.28;;;-140.58;100.00
17309;BME280;8772;42.804;23.426;2023-03-20T00:36:39;74759.59;;;-140.58;100.00
17309;BME280;8772;42.804;23.426;2023-03-20T00:39:06;74773.97;;;-140.58;100.00
17309;BME280;8772;42.804;23.426;2023-03-20T00:41:40;74782.19;;;-140.58;100.00
17309;BME280;8772;42.804;23.426;2023-03-20T00:44:18;74773.97;;;-140.58;100.00
17309;BME280;8772;42.804;23.426;2023-03-20T00:46:47;74776.03;;;-140.58;100.00
17309;BME280;8772;42.804;23.426;2023-03-20T00:49:15;74782.19;;;-140.58;100.00
17309;BME280;8772;42.804;23.426;2023-03-20T00:51:42;74794.50;;;-140.58;100.00
17309;BME280;8772;42.804;23.426;2023-03-20T00:54:11;74798.59;;;-140.58;100.00
17309;BME280;8772;42.804;23.426;2023-03-20T00:56:40;74796.53;;;-140.58;100.00
17309;BME280;8772;42.804;23.426;2023-03-20T00:59:15;74786.28;;;-140.58;100.00
17309;BME280;8772;42.804;23.426;2023-03-20T01:01:44;74812.97;;;-140.58;100.00
17309;BME280;8772;42.804;23.426;2023-03-20T01:07:33;74802.69;;;-140.58;100.00
17309;BME280;8772;42.804;23.426;2023-03-20T01:09:59;74802.69;;;-140.58;100.00
17309;BME280;8772;42.804;23.426;2023-03-20T01:12:26;74806.81;;;-140.58;100.00
17309;BME280;8772;42.804;23.426;2023-03-20T01:14:56;74812.97;;;-140.58;100.00
17309;BME280;8772;42.804;23.426;2023-03-20T01:17:25;74831.44;;;-140.58;100.00
17309;BME280;8772;42.804;23.426;2023-03-20T01:19:52;74831.44;;;-140.58;100.00
17309;BME280;8772;42.804;23.426;2023-03-20T01:22:19;74833.47;;;-140.58;100.00
17309;BME280;8772;42.804;23.426;2023-03-20T01:24:46;74823.22;;;-140.58;100.00
17309;BME280;8772;42.804;23.426;2023-03-20T01:27:15;74831.44;;;-140.58;100.00
17309;BME280;8772;42.804;23.426;2023-03-20T01:29:43;74847.84;;;-140.58;100.00
17309;BME280;8772;42.804;23.426;2023-03-20T01:32:13;74843.75;;;-140.58;100.00
17309;BME280;8772;42.804;23.426;2023-03-20T01:34:41;74845.78;;;-140.58;100.00
17309;BME280;8772;42.804;23.426;2023-03-20T01:37:12;74839.63;;;-140.58;100.00
17309;BME280;8772;42.804;23.426;2023-03-20T01:39:40;74843.75;;;-140.58;100.00
17309;BME280;8772;42.804;23.426;2023-03-20T01:42:07;74835.53;;;-140.58;100.00
17309;BME280;8772;42.804;23.426;2023-03-20T01:44:35;74860.16;;;-140.58;100.00
17309;BME280;8772;42.804;23.426;2023-03-20T01:47:13;74864.25;;;-140.58;100.00
17309;BME280;8772;42.804;23.426;2023-03-20T01:52:42;74854.00;;;-140.58;100.00
17309;BME280;8772;42.804;23.426;2023-03-20T01:55:09;74876.56;;;-140.58;100.00
17309;BME280;8772;42.804;23.426;2023-03-20T01:57:37;74868.38;;;-140.58;100.00
17309;BME280;8772;42.804;23.426;2023-03-20T02:00:06;74878.63;;;-140.58;100.00
17309;BME280;8772;42.804;23.426;2023-03-20T02:02:38;74858.09;;;-140.58;100.00
17309;BME280;8772;42.804;23.426;2023-03-20T02:05:08;74860.16;;;-140.58;100.00
17309;BME280;8772;42.804;23.426;2023-03-20T02:07:37;74862.22;;;-140.58;100.00
17309;BME280;8772;42.804;23.426;2023-03-20T02:10:08;74862.22;;;-140.58;100.00
17309;BME280;8772;42.804;23.426;2023-03-20T02:12:37;74856.06;;;-140.58;100.00
17309;BME280;8772;42.804;23.426;2023-03-20T02:15:05;74862.22;;;-140.58;100.00
17309;BME280;8772;42.804;23.426;2023-03-20T02:17:33;74854.00;;;-140.58;100.00
17309;BME280;8772;42.804;23.426;2023-03-20T02:20:07;74835.53;;;-140.58;100.00
17309;BME280;8772;42.804;23.426;2023-03-20T02:26:02;74823.22;;;-140.58;100.00
17309;BME280;8772;42.804;23.426;2023-03-20T02:29:09;74823.22;;;-140.58;100.00
17309;BME280;8772;42.804;23.426;2023-03-20T02:32:17;74802.69;;;-140.58;100.00
17309;BME280;8772;42.804;23.426;2023-03-20T02:38:01;74804.75;;;-140.58;100.00
17309;BME280;8772;42.804;23.426;2023-03-20T02:40:37;74802.69;;;-140.58;100.00
17309;BME280;8772;42.804;23.426;2023-03-20T02:43:16;74810.91;;;-140.58;100.00
17309;BME280;8772;42.804;23.426;2023-03-20T02:45:51;74819.13;;;-140.58;100.00
17309;BME280;8772;42.804;23.426;2023-03-20T02:48:28;74823.22;;;-140.58;100.00
17309;BME280;8772;42.804;23.426;2023-03-20T02:51:01;74819.13;;;-140.58;100.00
17309;BME280;8772;42.804;23.426;2023-03-20T02:53:39;74823.22;;;-140.58;100.00
17309;BME280;8772;42.804;23.426;2023-03-20T02:56:12;74841.69;;;-140.58;100.00
17309;BME280;8772;42.804;23.426;2023-03-20T02:58:48;74847.84;;;-140.58;100.00
17309;BME280;8772;42.804;23.426;2023-03-20T03:01:19;74868.38;;;-140.58;100.00
17309;BME280;8772;42.804;23.426;2023-03-20T03:03:50;74901.19;;;-140.58;100.00
17309;BME280;8772;42.804;23.426;2023-03-20T03:06:23;74905.31;;;-140.58;100.00
17309;BME280;8772;42.804;23.426;2023-03-20T03:08:58;74909.41;;;-140.58;100.00
17309;BME280;8772;42.804;23.426;2023-03-20T03:11:26;74909.41;;;-140.58;100.00
17309;BME280;8772;42.804;23.426;2023-03-20T03:13:54;74913.50;;;-140.58;100.00
17309;BME280;8772;42.804;23.426;2023-03-20T03:16:24;74913.50;;;-140.58;100.00
17309;BME280;8772;42.804;23.426;2023-03-20T03:18:59;74917.63;;;-140.58;100.00
17309;BME280;8772;42.804;23.426;2023-03-20T03:21:28;74897.09;;;-140.58;100.00
17309;BME280;8772;42.804;23.426;2023-03-20T03:23:58;74878.63;;;-140.58;100.00
17309;BME280;8772;42.804;23.426;2023-03-20T03:26:27;74884.78;;;-140.58;100.00
17309;BME280;8772;42.804;23.426;2023-03-20T03:28:59;74901.19;;;-140.58;100.00
17309;BME280;8772;42.804;23.426;2023-03-20T03:31:29;74903.25;;;-140.58;100.00
17309;BME280;8772;42.804;23.426;2023-03-20T03:33:58;74911.47;;;-140.58;100.00
17309;BME280;8772;42.804;23.426;2023-03-20T03:36:36;74921.72;;;-140.58;100.00
17309;BME280;8772;42.804;23.426;2023-03-20T03:39:13;74931.97;;;-140.58;100.00
17309;BME280;8772;42.804;23.426;2023-03-20T03:41:47;74938.13;;;-140.58;100.00
17309;BME280;8772;42.804;23.426;2023-03-20T03:44:19;74919.66;;;-140.58;100.00
17309;BME280;8772;42.804;23.426;2023-03-20T03:46:51;74938.13;;;-140.58;100.00
17309;BME280;8772;42.804;23.426;2023-03-20T03:49:23;74952.50;;;-140.58;100.00
17309;BME280;8772;42.804;23.426;2023-03-20T03:51:54;74964.81;;;-140.58;100.00
17309;BME280;8772;42.804;23.426;2023-03-20T03:54:25;74952.50;;;-140.58;100.00
17309;BME280;8772;42.804;23.426;2023-03-20T03:56:55;74936.09;;;-140.58;100.00
17309;BME280;8772;42.804;23.426;2023-03-20T03:59:26;74925.81;;;-140.58;100.00
17309;BME280;8772;42.804;23.426;2023-03-20T04:01:56;74942.25;;;-140.58;100.00
17309;BME280;8772;42.804;23.426;2023-03-20T04:04:25;74931.97;;;-140.58;100.00
17309;BME280;8772;42.804;23.426;2023-03-20T04:06:53;74946.34;;;-140.58;100.00
17309;BME280;8772;42.804;23.426;2023-03-20T04:09:21;74954.56;;;-140.58;100.00
17309;BME280;8772;42.804;23.426;2023-03-20T04:11:51;74942.25;;;-140.58;100.00
17309;BME280;8772;42.804;23.426;2023-03-20T04:14:18;74938.13;;;-140.58;100.00
17309;BME280;8772;42.804;23.426;2023-03-20T04:16:46;74942.25;;;-140.58;100.00
17309;BME280;8772;42.804;23.426;2023-03-20T04:19:13;74944.28;;;-140.58;100.00
17309;BME280;8772;42.804;23.426;2023-03-20T04:21:40;74948.41;;;-140.58;100.00
17309;BME280;8772;42.804;23.426;2023-03-20T04:24:07;74934.03;;;-140.58;100.00
17309;BME280;8772;42.804;23.426;2023-03-20T04:26:34;74938.13;;;-140.58;100.00
17309;BME280;8772;42.804;23.426;2023-03-20T04:29:02;74929.94;;;-140.58;100.00
17309;BME280;8772;42.804;23.426;2023-03-20T04:31:29;74931.97;;;-140.58;100.00
17309;BME280;8772;42.804;23.426;2023-03-20T04:33:57;74921.72;;;-140.58;100.00
17309;BME280;8772;42.804;23.426;2023-03-20T04:36:24;74915.56;;;-140.58;100.00
17309;BME280;8772;42.804;23.426;2023-03-20T04:38:50;74890.94;;;-140.58;100.00
17309;BME280;8772;42.804;23.426;2023-03-20T04:41:17;74897.09;;;-140.58;100.00
17309;BME280;8772;42.804;23.426;2023-03-20T04:43:45;74901.19;;;-140.58;100.00
17309;BME280;8772;42.804;23.426;2023-03-20T04:46:14;74905.31;;;-140.58;100.00
17309;BME280;8772;42.804;23.426;2023-03-20T04:48:41;74890.94;;;-140.58;100.00
17309;BME280;8772;42.804;23.426;2023-03-20T04:51:08;74899.16;;;-140.58;100.00
17309;BME280;8772;42.804;23.426;2023-03-20T04:53:34;74882.72;;;-140.58;100.00
17309;BME280;8772;42.804;23.426;2023-03-20T04:56:01;74880.69;;;-140.58;100.00
17309;BME280;8772;42.804;23.426;2023-03-20T04:58:28;74868.38;;;-140.58;100.00
17309;BME280;8772;42.804;23.426;2023-03-20T05:00:55;74868.38;;;-140.58;100.00
17309;BME280;8772;42.804;23.426;2023-03-20T05:03:23;74868.38;;;-140.58;100.00
17309;BME280;8772;42.804;23.426;2023-03-20T05:05:52;74864.25;;;-140.58;100.00
17309;BME280;8772;42.804;23.426;2023-03-20T05:08:19;74851.94;;;-140.58;100.00
17309;BME280;8772;42.804;23.426;2023-03-20T05:10:46;74860.16;;;-140.58;100.00
17309;BME280;8772;42.804;23.426;2023-03-20T05:13:12;74856.06;;;-140.58;100.00
17309;BME280;8772;42.804;23.426;2023-03-20T05:15:39;74847.84;;;-140.58;100.00
17309;BME280;8772;42.804;23.426;2023-03-20T05:18:06;74839.63;;;-140.58;100.00
17309;BME280;8772;42.804;23.426;2023-03-20T05:20:35;74839.63;;;-140.58;100.00
17309;BME280;8772;42.804;23.426;2023-03-20T05:23:02;74835.53;;;-140.58;100.00
17309;BME280;8772;42.804;23.426;2023-03-20T05:25:30;74839.63;;;-140.58;100.00
17309;BME280;8772;42.804;23.426;2023-03-20T05:27:57;74831.44;;;-140.58;100.00
17309;BME280;8772;42.804;23.426;2023-03-20T05:30:24;74825.28;;;-140.58;100.00
17309;BME280;8772;42.804;23.426;2023-03-20T05:32:51;74823.22;;;-140.58;100.00
17309;BME280;8772;42.804;23.426;2023-03-20T05:35:18;74819.13;;;-140.58;100.00
17309;BME280;8772;42.804;23.426;2023-03-20T05:37:50;74810.91;;;-140.58;100.00
17309;BME280;8772;42.804;23.426;2023-03-20T05:40:17;74802.69;;;-140.58;100.00
17309;BME280;8772;42.804;23.426;2023-03-20T05:42:44;74806.81;;;-140.58;100.00
17309;BME280;8772;42.804;23.426;2023-03-20T05:45:12;74792.44;;;-140.58;100.00
17309;BME280;8772;42.804;23.426;2023-03-20T05:47:40;74769.88;;;-140.58;100.00
17309;BME280;8772;42.804;23.426;2023-03-20T05:50:08;74753.44;;;-140.58;100.00
17309;BME280;8772;42.804;23.426;2023-03-20T05:52:35;74749.34;;;-140.58;100.00
17309;BME280;8772;42.804;23.426;2023-03-20T05:55:04;74730.88;;;-140.58;100.00
17309;BME280;8772;42.804;23.426;2023-03-20T05:57:31;74720.63;;;-140.58;100.00
17309;BME280;8772;42.804;23.426;2023-03-20T05:59:58;74708.31;;;-140.58;100.00
17309;BME280;8772;42.804;23.426;2023-03-20T06:02:25;74691.91;;;-140.58;100.00
17309;BME280;8772;42.804;23.426;2023-03-20T06:04:52;74675.47;;;-140.58;100.00
17309;BME280;8772;42.804;23.426;2023-03-20T06:07:19;74663.16;;;-140.58;100.00
17309;BME280;8772;42.804;23.426;2023-03-20T06:09:46;74657.00;;;-140.58;100.00
17309;BME280;8772;42.804;23.426;2023-03-20T06:12:14;74646.75;;;-140.58;100.00
17309;BME280;8772;42.804;23.426;2023-03-20T06:14:41;74630.34;;;-140.58;100.00
17309;BME280;8772;42.804;23.426;2023-03-20T06:17:08;74618.03;;;-140.58;100.00
17309;BME280;8772;42.804;23.426;2023-03-20T06:19:35;74613.91;;;-140.58;100.00
17309;BME280;8772;42.804;23.426;2023-03-20T06:22:03;74589.28;;;-140.58;100.00
17309;BME280;8772;42.804;23.426;2023-03-20T06:24:30;74579.03;;;-140.58;100.00
17309;BME280;8772;42.804;23.426;2023-03-20T06:26:57;74558.53;;;-140.58;100.00
17309;BME280;8772;42.804;23.426;2023-03-20T06:29:26;74552.34;;;-140.58;100.00
17309;BME280;8772;42.804;23.426;2023-03-20T06:31:53;74529.78;;;-140.58;100.00
17309;BME280;8772;42.804;23.426;2023-03-20T06:34:20;74515.44;;;-140.58;100.00
17309;BME280;8772;42.804;23.426;2023-03-20T06:36:47;74499.00;;;-140.58;100.00
17309;BME280;8772;42.804;23.426;2023-03-20T06:39:14;74488.75;;;-140.58;100.00
17309;BME280;8772;42.804;23.426;2023-03-20T06:41:41;74468.22;;;-140.58;100.00
17309;BME280;8772;42.804;23.426;2023-03-20T06:44:08;74457.97;;;-140.58;100.00
17309;BME280;8772;42.804;23.426;2023-03-20T06:46:36;74445.66;;;-140.58;100.00
17309;BME280;8772;42.804;23.426;2023-03-20T06:49:03;74437.47;;;-140.58;100.00
17309;BME280;8772;42.804;23.426;2023-03-20T06:51:30;74416.94;;;-140.58;100.00
17309;BME280;8772;42.804;23.426;2023-03-20T06:53:57;74408.72;;;-140.58;100.00
17309;BME280;8772;42.804;23.426;2023-03-20T06:56:24;74400.53;;;-140.58;100.00
17309;BME280;8772;42.804;23.426;2023-03-20T06:58:51;74388.22;;;-140.58;100.00
17309;BME280;8772;42.804;23.426;2023-03-20T07:01:18;74371.81;;;-140.58;100.00
17309;BME280;8772;42.804;23.426;2023-03-20T07:03:46;74359.50;;;-140.58;100.00
17309;BME280;8772;42.804;23.426;2023-03-20T07:06:13;74355.38;;;-140.58;100.00
17309;BME280;8772;42.804;23.426;2023-03-20T07:08:40;74330.75;;;-140.58;100.00
17309;BME280;8772;42.804;23.426;2023-03-20T07:11:07;74318.44;;;-140.58;99.38
17309;BME280;8772;42.804;23.426;2023-03-20T07:13:34;74310.25;;;-140.58;98.06
17309;BME280;8772;42.804;23.426;2023-03-20T07:16:03;74289.72;;;-140.58;96.74
17309;BME280;8772;42.804;23.426;2023-03-20T07:18:30;74297.94;;;-140.58;93.49
17309;BME280;8772;42.804;23.426;2023-03-20T07:21:00;74281.53;;;-140.58;95.33
17309;BME280;8772;42.804;23.426;2023-03-20T07:23:27;74283.56;;;-140.58;93.95
17309;BME280;8772;42.804;23.426;2023-03-20T07:25:55;74269.22;;;-140.58;92.71
17309;BME280;8772;42.804;23.426;2023-03-20T07:28:22;74265.09;;;-140.58;92.58
17309;BME280;8772;42.804;23.426;2023-03-20T07:30:49;74248.69;;;-140.58;93.09
17309;BME280;8772;42.804;23.426;2023-03-20T07:33:16;74236.38;;;-140.58;93.44
17309;BME280;8772;42.804;23.426;2023-03-20T07:35:43;74236.38;;;-140.58;91.10
17309;BME280;8772;42.804;23.426;2023-03-20T07:38:12;74219.97;;;-140.58;89.77
17309;BME280;8772;42.804;23.426;2023-03-20T07:40:39;74191.25;;;-140.58;91.09
17309;BME280;8772;42.804;23.426;2023-03-20T07:43:05;74191.25;;;-140.58;92.16
17309;BME280;8772;42.804;23.426;2023-03-20T07:45:32;74154.31;;;-140.58;91.01
17309;BME280;8772;42.804;23.426;2023-03-20T07:47:59;74142.00;;;-140.58;87.35
17309;BME280;8772;42.804;23.426;2023-03-20T07:50:26;74127.66;;;-140.58;85.52
17309;BME280;8772;42.804;23.426;2023-03-20T07:52:53;74107.13;;;-140.58;86.21
17309;BME280;8772;42.804;23.426;2023-03-20T07:55:21;74076.34;;;-140.58;85.84
17309;BME280;8772;42.804;23.426;2023-03-20T07:57:49;74047.63;;;-140.58;84.67
17309;BME280;8772;42.804;23.426;2023-03-20T08:00:17;74043.53;;;-140.58;83.39
17309;BME280;8772;42.804;23.426;2023-03-20T08:02:44;74006.59;;;-140.58;82.04
17309;BME280;8772;42.804;23.426;2023-03-20T08:05:11;73990.19;;;-140.58;79.99
17309;BME280;8772;42.804;23.426;2023-03-20T08:07:38;73957.38;;;-140.58;78.16
17309;BME280;8772;42.804;23.426;2023-03-20T08:10:05;73938.91;;;-140.58;76.57
17309;BME280;8772;42.804;23.426;2023-03-20T08:12:34;73904.03;;;-140.58;77.59
17309;BME280;8772;42.804;23.426;2023-03-20T08:15:01;73895.81;;;-140.58;74.11
17309;BME280;8772;42.804;23.426;2023-03-20T08:17:28;73889.66;;;-140.58;73.56
17309;BME280;8772;42.804;23.426;2023-03-20T08:19:54;73850.69;;;-140.58;74.50
17309;BME280;8772;42.804;23.426;2023-03-20T08:22:21;73813.75;;;-140.58;72.48
17309;BME280;8772;42.804;23.426;2023-03-20T08:24:48;73780.94;;;-140.58;71.54
17309;BME280;8772;42.804;23.426;2023-03-20T08:27:15;73754.28;;;-140.58;67.48
17309;BME280;8772;42.804;23.426;2023-03-20T08:29:44;73735.81;;;-140.58;66.52
17309;BME280;8772;42.804;23.426;2023-03-20T08:32:11;73690.69;;;-140.58;67.56
17309;BME280;8772;42.804;23.426;2023-03-20T08:34:38;73649.66;;;-140.58;65.74
17309;BME280;8772;42.804;23.426;2023-03-20T08:37:05;73618.88;;;-140.58;63.09
17309;BME280;8772;42.804;23.426;2023-03-20T08:39:32;73598.38;;;-140.58;53.10
17309;BME280;8772;42.804;23.426;2023-03-20T08:42:00;73571.69;;;-140.58;52.58
17309;BME280;8772;42.804;23.426;2023-03-20T08:44:27;73536.81;;;-140.58;51.78
17309;BME280;8772;42.804;23.426;2023-03-20T08:46:56;73510.16;;;-140.58;50.88
17309;BME280;8772;42.804;23.426;2023-03-20T08:49:23;73489.66;;;-140.58;50.29
17309;BME280;8772;42.804;23.426;2023-03-20T08:51:50;73477.34;;;-140.58;48.38
17309;BME280;8772;42.804;23.426;2023-03-20T08:54:17;73436.31;;;-140.58;49.04
17309;BME280;8772;42.804;23.426;2023-03-20T08:56:44;73397.34;;;-140.58;47.64
17309;BME280;8772;42.804;23.426;2023-03-20T08:59:11;73374.78;;;-140.58;46.80
17309;BME280;8772;42.804;23.426;2023-03-20T09:01:39;73337.84;;;-140.58;45.74
17309;BME280;8772;42.804;23.426;2023-03-20T09:04:11;73300.94;;;-140.58;44.18
17309;BME280;8772;42.804;23.426;2023-03-20T09:06:45;73270.16;;;-140.58;44.91
17309;BME280;8772;42.804;23.426;2023-03-20T09:09:12;73251.72;;;-140.58;43.64
17309;BME280;8772;42.804;23.426;2023-03-20T09:11:40;73218.91;;;-140.58;44.32
17309;BME280;8772;42.804;23.426;2023-03-20T09:14:07;73155.31;;;-140.58;43.51
17309;BME280;8772;42.804;23.426;2023-03-20T09:16:34;73108.13;;;-140.58;43.05
17309;BME280;8772;42.804;23.426;2023-03-20T09:19:01;73087.63;;;-140.58;41.20
17309;BME280;8772;42.804;23.426;2023-03-20T09:21:29;73069.16;;;-140.58;39.74
17309;BME280;8772;42.804;23.426;2023-03-20T09:23:56;73013.78;;;-140.58;41.34
17309;BME280;8772;42.804;23.426;2023-03-20T09:26:23;72960.47;;;-140.58;41.49
17309;BME280;8772;42.804;23.426;2023-03-20T09:28:50;72911.25;;;-140.58;37.40
17309;BME280;8772;42.804;23.426;2023-03-20T09:31:17;72886.63;;;-140.58;37.43
17309;BME280;8772;42.804;23.426;2023-03-20T09:33:43;72845.63;;;-140.58;36.55
17309;BME280;8772;42.804;23.426;2023-03-20T09:36:10;72839.47;;;-140.58;35.73
17309;BME280;8772;42.804;23.426;2023-03-20T09:38:39;72800.50;;;-140.58;34.96
17309;BME280;8772;42.804;23.426;2023-03-20T09:41:12;72784.09;;;-140.58;35.34
17309;BME280;8772;42.804;23.426;2023-03-20T09:43:50;72745.13;;;-140.58;34.01
17309;BME280;8772;42.804;23.426;2023-03-20T09:46:31;72730.78;;;-140.58;32.63
17309;BME280;8772;42.804;23.426;2023-03-20T09:49:08;72693.84;;;-140.58;33.19
17309;BME280;8772;42.804;23.426;2023-03-20T09:51:42;72659.00;;;-140.58;32.68
17309;BME280;8772;42.804;23.426;2023-03-20T09:54:18;72644.63;;;-140.58;31.71
17309;BME280;8772;42.804;23.426;2023-03-20T09:56:48;72634.38;;;-140.58;33.43
17309;BME280;8772;42.804;23.426;2023-03-20T09:59:17;72617.97;;;-140.58;33.19
17309;BME280;8772;42.804;23.426;2023-03-20T10:01:47;72579.00;;;-140.58;33.29
17309;BME280;8772;42.804;23.426;2023-03-20T10:04:16;72593.38;;;-140.58;31.36
17309;BME280;8772;42.804;23.426;2023-03-20T10:06:42;72585.16;;;-140.58;31.57
17309;BME280;8772;42.804;23.426;2023-03-20T10:09:15;72587.22;;;-140.58;32.50
17309;BME280;8772;42.804;23.426;2023-03-20T10:14:50;72560.56;;;-140.58;30.46
17309;BME280;8772;42.804;23.426;2023-03-20T10:17:37;72558.50;;;-140.58;31.30
17309;BME280;8772;42.804;23.426;2023-03-20T10:20:10;72585.16;;;-140.58;30.25
17309;BME280;8772;42.804;23.426;2023-03-20T10:22:42;72576.97;;;-140.58;31.97
17309;BME280;8772;42.804;23.426;2023-03-20T10:25:21;72542.09;;;-140.58;32.30
17309;BME280;8772;42.804;23.426;2023-03-20T10:27:52;72529.78;;;-140.58;31.90
17309;BME280;8772;42.804;23.426;2023-03-20T10:30:34;72505.19;;;-140.58;31.31
17309;BME280;8772;42.804;23.426;2023-03-20T10:33:19;72521.59;;;-140.58;30.79
17309;BME280;8772;42.804;23.426;2023-03-20T10:35:59;72501.09;;;-140.58;32.01
17309;BME280;8772;42.804;23.426;2023-03-20T10:38:38;72472.38;;;-140.58;31.41
17309;BME280;8772;42.804;23.426;2023-03-20T10:41:14;72464.16;;;-140.58;29.30
17309;BME280;8772;42.804;23.426;2023-03-20T10:43:43;72445.72;;;-140.58;30.34
17309;BME280;8772;42.804;23.426;2023-03-20T10:46:14;72451.88;;;-140.58;30.48
17309;BME280;8772;42.804;23.426;2023-03-20T10:48:45;72427.25;;;-140.58;29.21
17309;BME280;8772;42.804;23.426;2023-03-20T10:51:17;72433.41;;;-140.58;29.57
17309;BME280;8772;42.804;23.426;2023-03-20T10:53:47;72419.06;;;-140.58;28.51
17309;BME280;8772;42.804;23.426;2023-03-20T10:56:22;72410.84;;;-140.58;27.87
17309;BME280;8772;42.804;23.426;2023-03-20T10:58:57;72410.84;;;-140.58;28.33
17309;BME280;8772;42.804;23.426;2023-03-20T11:01:25;72394.44;;;-140.58;27.32
17309;BME280;8772;42.804;23.426;2023-03-20T11:03:52;72386.25;;;-140.58;28.70
17309;BME280;8772;42.804;23.426;2023-03-20T11:06:24;72378.03;;;-140.58;28.41
17309;BME280;8772;42.804;23.426;2023-03-20T11:08:52;72367.78;;;-140.58;26.78
17309;BME280;8772;42.804;23.426;2023-03-20T11:11:25;72390.34;;;-140.58;26.76
17309;BME280;8772;42.804;23.426;2023-03-20T11:13:53;72396.50;;;-140.58;26.39
17309;BME280;8772;42.804;23.426;2023-03-20T11:16:22;72394.44;;;-140.58;26.89
17309;BME280;8772;42.804;23.426;2023-03-20T11:18:51;72386.25;;;-140.58;27.09
17309;BME280;8772;42.804;23.426;2023-03-20T11:21:21;72388.31;;;-140.58;25.59
17309;BME280;8772;42.804;23.426;2023-03-20T11:23:49;72380.09;;;-140.58;26.56
17309;BME280;8772;42.804;23.426;2023-03-20T11:26:19;72373.94;;;-140.58;26.90
17309;BME280;8772;42.804;23.426;2023-03-20T11:28:52;72376.00;;;-140.58;27.97
17309;BME280;8772;42.804;23.426;2023-03-20T11:31:25;72335.00;;;-140.58;27.72
17309;BME280;8772;42.804;23.426;2023-03-20T11:34:08;72312.44;;;-140.58;27.09
17309;BME280;8772;42.804;23.426;2023-03-20T11:36:36;72289.88;;;-140.58;27.64
17309;BME280;8772;42.804;23.426;2023-03-20T11:39:09;72283.72;;;-140.58;26.67
17309;BME280;8772;42.804;23.426;2023-03-20T11:41:41;72255.00;;;-140.58;27.15
17309;BME280;8772;42.804;23.426;2023-03-20T11:44:25;72242.72;;;-140.58;27.51
17309;BME280;8772;42.804;23.426;2023-03-20T11:46:56;72218.09;;;-140.58;26.00
17309;BME280;8772;42.804;23.426;2023-03-20T11:49:26;72214.00;;;-140.58;25.79
17309;BME280;8772;42.804;23.426;2023-03-20T11:51:55;72199.66;;;-140.58;25.67
17309;BME280;8772;42.804;23.426;2023-03-20T11:54:24;72203.75;;;-140.58;26.94
17309;BME280;8772;42.804;23.426;2023-03-20T11:56:54;72193.50;;;-140.58;27.12
17309;BME280;8772;42.804;23.426;2023-03-20T11:59:22;72160.69;;;-140.58;26.75
17309;BME280;8772;42.804;23.426;2023-03-20T12:01:52;72134.03;;;-140.58;26.80
17309;BME280;8772;42.804;23.426;2023-03-20T12:04:26;72107.38;;;-140.58;26.93
17309;BME280;8772;42.804;23.426;2023-03-20T12:06:56;72088.94;;;-140.58;25.53
17309;BME280;8772;42.804;23.426;2023-03-20T12:09:32;72095.06;;;-140.58;26.19
17309;BME280;8772;42.804;23.426;2023-03-20T12:12:06;72068.44;;;-140.58;26.61
17309;BME280;8772;42.804;23.426;2023-03-20T12:14:44;72062.28;;;-140.58;26.10
17309;BME280;8772;42.804;23.426;2023-03-20T12:17:41;72062.28;;;-140.58;26.65
17309;BME280;8772;42.804;23.426;2023-03-20T12:20:31;72049.97;;;-140.58;26.26
17309;BME280;8772;42.804;23.426;2023-03-20T12:23:09;72029.47;;;-140.58;25.44
17309;BME280;8772;42.804;23.426;2023-03-20T12:25:42;72004.88;;;-140.58;26.08
17309;BME280;8772;42.804;23.426;2023-03-20T12:28:18;72008.97;;;-140.58;25.56
17309;BME280;8772;42.804;23.426;2023-03-20T12:31:05;71988.47;;;-140.58;25.68
17309;BME280;8772;42.804;23.426;2023-03-20T12:33:42;71976.16;;;-140.58;24.60
17309;BME280;8772;42.804;23.426;2023-03-20T12:36:14;71955.66;;;-140.58;24.82
17309;BME280;8772;42.804;23.426;2023-03-20T12:38:44;71949.50;;;-140.58;24.15
17309;BME280;8772;42.804;23.426;2023-03-20T12:41:14;71935.16;;;-140.58;24.18
17309;BME280;8772;42.804;23.426;2023-03-20T12:43:58;71943.34;;;-140.58;22.69
17309;BME280;8772;42.804;23.426;2023-03-20T12:46:37;71943.34;;;-140.58;21.62
17309;BME280;8772;42.804;23.426;2023-03-20T12:49:14;71926.94;;;-140.58;22.96
17309;BME280;8772;42.804;23.426;2023-03-20T12:51:53;71914.66;;;-140.58;23.03
17309;BME280;8772;42.804;23.426;2023-03-20T12:54:32;71902.34;;;-140.58;23.00
17309;BME280;8772;42.804;23.426;2023-03-20T12:57:11;71894.16;;;-140.58;22.82
17309;BME280;8772;42.804;23.426;2023-03-20T12:59:52;71865.44;;;-140.58;23.49
17309;BME280;8772;42.804;23.426;2023-03-20T13:02:33;71865.44;;;-140.58;22.93
17309;BME280;8772;42.804;23.426;2023-03-20T13:05:15;71861.34;;;-140.58;22.59
17309;BME280;8772;42.804;23.426;2023-03-20T13:07:57;71857.25;;;-140.58;22.85